Time;durP1;ratioP1;P1;durP2;ratioP2;P2;SDS_P1;SDS_P2;PMS_P1;PMS_P2;Temp;Humidity;BMP_temperature;BMP_pressure;BME280_temperature;BME280_humidity;BME280_pressure;Samples;Min_cycle;Max_cycle;Signal;HPM_P1;HPM_P2
2023/06/09 00:00:22;;;;;;;3.60;3.30;;;;;15.40;96587.00;;;;4988667;28;20215;-72
2023/06/09 00:03:11;;;;;;;4.17;3.20;;;;;15.40;96586.00;;;;4991533;28;20607;-72
2023/06/09 00:06:02;;;;;;;8.10;3.57;;;;;15.30;96582.00;;;;4985412;28;20211;-72
2023/06/09 00:08:51;;;;;;;3.47;3.17;;;;;14.90;96575.00;;;;4989994;28;20191;-72
2023/06/09 00:11:40;;;;;;;5.00;4.50;;;;;14.50;96579.00;;;;4986468;28;20578;-73
2023/06/09 00:14:29;;;;;;;3.73;3.13;;;;;14.60;96574.00;;;;4992936;28;20226;-73
2023/06/09 00:17:19;;;;;;;6.10;3.67;;;;;14.60;96571.00;;;;4990596;28;20212;-73
2023/06/09 00:20:09;;;;;;;4.13;3.70;;;;;14.60;96574.00;;;;4991494;28;20199;-72
2023/06/09 00:23:00;;;;;;;6.73;6.13;;;;;14.80;96567.00;;;;4979866;28;20238;-72
2023/06/09 00:25:49;;;;;;;7.80;4.40;;;;;14.80;96563.00;;;;4989997;28;20203;-73
2023/06/09 00:28:38;;;;;;;5.23;4.73;;;;;14.70;96568.00;;;;4987541;28;20578;-72
2023/06/09 00:31:27;;;;;;;7.97;3.83;;;;;14.60;96560.00;;;;4989974;28;20221;-72
2023/06/09 00:34:16;;;;;;;3.90;3.60;;;;;14.40;96557.00;;;;4989686;28;20711;-71
2023/06/09 00:37:06;;;;;;;3.70;3.40;;;;;14.20;96552.00;;;;4990569;28;20886;-72
2023/06/09 00:39:57;;;;;;;4.80;3.73;;;;;14.30;96556.00;;;;4990718;28;20203;-72
2023/06/09 00:42:46;;;;;;;6.73;3.50;;;;;13.80;96542.00;;;;4986467;28;20218;-73
2023/06/09 00:45:35;;;;;;;4.83;4.27;;;;;14.20;96552.00;;;;4989082;28;20243;-73
2023/06/09 00:48:24;;;;;;;5.17;4.20;;;;;14.30;96540.00;;;;4989651;28;20206;-72
2023/06/09 00:51:13;;;;;;;4.60;4.17;;;;;14.40;96529.00;;;;4988510;28;20207;-72
2023/06/09 00:54:02;;;;;;;4.27;3.50;;;;;14.50;96542.00;;;;4981181;28;20233;-73
2023/06/09 00:56:55;;;;;;;6.10;4.07;;;;;14.60;96541.00;;;;4987204;28;20199;-72
2023/06/09 00:59:44;;;;;;;4.03;3.57;;;;;14.80;96524.00;;;;4988164;28;20226;-72
2023/06/09 01:02:38;;;;;;;5.45;3.80;;;;;14.70;96524.00;;;;4984550;28;20207;-72
2023/06/09 01:05:28;;;;;;;4.70;3.77;;;;;14.90;96524.00;;;;4989625;28;20734;-72
2023/06/09 01:08:22;;;;;;;3.53;3.23;;;;;14.90;96528.00;;;;4988418;28;20207;-72
2023/06/09 01:11:14;;;;;;;7.70;3.87;;;;;14.90;96528.00;;;;4988211;28;20205;-72
2023/06/09 01:14:09;;;;;;;6.83;3.70;;;;;14.80;96520.00;;;;4975128;28;20223;-72
2023/06/09 01:17:07;;;;;;;5.10;3.73;;;;;14.80;96517.00;;;;4978378;28;20203;-72
2023/06/09 01:20:04;;;;;;;3.47;3.13;;;;;14.60;96506.00;;;;4980377;28;20219;-72
2023/06/09 01:22:58;;;;;;;5.27;3.93;;;;;14.60;96516.00;;;;4985509;28;20655;-73
2023/06/09 01:25:50;;;;;;;5.40;3.60;;;;;14.80;96505.00;;;;4989378;28;20206;-72
2023/06/09 01:28:39;;;;;;;6.33;3.83;;;;;14.80;96510.00;;;;4989481;28;20210;-72
2023/06/09 01:31:28;;;;;;;4.70;4.17;;;;;14.80;96502.00;;;;4984444;28;20211;-72
2023/06/09 01:34:18;;;;;;;4.37;3.40;;;;;14.60;96510.00;;;;4991825;28;20219;-72
2023/06/09 01:37:08;;;;;;;3.57;3.27;;;;;14.40;96503.00;;;;4988581;28;20211;-72
2023/06/09 01:39:57;;;;;;;3.87;3.30;;;;;13.80;96498.00;;;;4988853;28;20795;-72
2023/06/09 01:42:47;;;;;;;4.30;3.90;;;;;14.00;96499.00;;;;4980187;28;20217;-72
2023/06/09 01:45:36;;;;;;;3.93;3.60;;;;;13.80;96497.00;;;;4987460;28;20214;-72
2023/06/09 01:48:31;;;;;;;3.53;3.23;;;;;13.60;96496.00;;;;4975872;28;20212;-71
2023/06/09 01:51:25;;;;;;;5.17;4.57;;;;;13.80;96500.00;;;;4987095;28;20206;-72
2023/06/09 01:54:22;;;;;;;8.40;4.33;;;;;14.10;96492.00;;;;4988596;28;20721;-72
2023/06/09 01:57:19;;;;;;;4.23;3.83;;;;;13.90;96492.00;;;;4985375;28;20209;-72
2023/06/09 02:00:11;;;;;;;5.63;3.97;;;;;13.90;96498.00;;;;4984047;28;20586;-72
2023/06/09 02:03:01;;;;;;;4.70;3.97;;;;;13.80;96492.00;;;;4985067;28;20226;-72
2023/06/09 02:05:51;;;;;;;4.07;3.67;;;;;13.90;96489.00;;;;4990204;28;20207;-72
2023/06/09 02:08:40;;;;;;;4.27;3.83;;;;;14.00;96480.00;;;;4988966;28;20698;-72
2023/06/09 02:11:30;;;;;;;5.13;3.40;;;;;13.50;96487.00;;;;4987178;28;20229;-72
2023/06/09 02:14:19;;;;;;;6.87;3.90;;;;;13.60;96474.00;;;;4986758;28;20222;-71
2023/06/09 02:17:10;;;;;;;3.40;2.70;;;;;14.00;96469.00;;;;4988579;28;20228;-72
2023/06/09 02:19:59;;;;;;;5.43;3.50;;;;;13.90;96465.00;;;;4988759;28;20238;-72
2023/06/09 02:22:48;;;;;;;4.57;3.73;;;;;13.80;96467.00;;;;4982930;28;20214;-72
2023/06/09 02:25:37;;;;;;;4.23;3.20;;;;;13.80;96472.00;;;;4987705;28;20225;-72
2023/06/09 02:28:26;;;;;;;4.17;3.53;;;;;14.10;96461.00;;;;4986985;28;20215;-71
2023/06/09 02:31:15;;;;;;;6.57;3.10;;;;;14.20;96462.00;;;;4989420;28;20213;-72
2023/06/09 02:34:06;;;;;;;3.37;3.07;;;;;14.40;96460.00;;;;4994655;28;20227;-72
2023/06/09 02:36:55;;;;;;;8.17;3.97;;;;;14.20;96472.00;;;;4989499;28;20214;-72
2023/06/09 02:39:44;;;;;;;6.23;3.83;;;;;13.80;96463.00;;;;4986601;28;20217;-72
2023/06/09 02:42:33;;;;;;;4.33;3.03;;;;;13.60;96465.00;;;;4987448;28;20205;-72
2023/06/09 02:45:22;;;;;;;5.73;3.80;;;;;13.90;96462.00;;;;4987741;28;20226;-72
2023/06/09 02:48:13;;;;;;;4.40;3.60;;;;;13.80;96460.00;;;;4988264;28;20206;-71
2023/06/09 02:51:04;;;;;;;4.00;3.60;;;;;13.80;96467.00;;;;4987595;28;20221;-72
2023/06/09 02:53:53;;;;;;;12.93;3.60;;;;;13.50;96463.00;;;;4987283;28;20214;-71
2023/06/09 02:56:42;;;;;;;7.73;3.77;;;;;13.40;96470.00;;;;4988409;28;20676;-72
2023/06/09 02:59:31;;;;;;;5.50;4.63;;;;;13.20;96470.00;;;;4987251;28;20206;-72
2023/06/09 03:02:20;;;;;;;4.60;3.63;;;;;13.40;96478.00;;;;4985942;28;20832;-72
2023/06/09 03:05:10;;;;;;;12.67;4.43;;;;;13.50;96479.00;;;;4987536;28;20269;-72
2023/06/09 03:08:01;;;;;;;4.03;3.73;;;;;13.40;96480.00;;;;4987607;28;20225;-71
2023/06/09 03:10:50;;;;;;;4.40;3.90;;;;;13.60;96492.00;;;;4987023;28;20577;-71
2023/06/09 03:13:39;;;;;;;6.57;4.00;;;;;13.80;96502.00;;;;4988238;28;20707;-71
2023/06/09 03:16:28;;;;;;;4.90;4.00;;;;;14.00;96493.00;;;;4984567;28;20215;-72
2023/06/09 03:19:17;;;;;;;4.43;4.00;;;;;14.20;96491.00;;;;4987666;28;20758;-72
2023/06/09 03:22:07;;;;;;;5.23;3.00;;;;;14.20;96486.00;;;;4988202;28;20827;-72
2023/06/09 03:24:57;;;;;;;4.30;3.90;;;;;14.00;96487.00;;;;4992232;28;20238;-71
2023/06/09 03:27:46;;;;;;;4.77;3.87;;;;;13.70;96490.00;;;;4989351;28;20198;-71
2023/06/09 03:30:35;;;;;;;4.30;3.57;;;;;13.50;96492.00;;;;4990839;28;20202;-71
2023/06/09 03:33:25;;;;;;;3.33;3.03;;;;;13.30;96488.00;;;;4996799;28;20241;-72
2023/06/09 03:36:14;;;;;;;3.53;3.23;;;;;13.80;96494.00;;;;4990814;28;20206;-72
2023/06/09 03:39:03;;;;;;;4.43;4.03;;;;;13.90;96498.00;;;;4986101;28;20893;-74
2023/06/09 03:41:56;;;;;;;4.53;3.43;;;;;14.10;96502.00;;;;4990454;28;20286;-73
2023/06/09 03:44:45;;;;;;;10.97;3.70;;;;;14.30;96505.00;;;;4991325;28;20223;-74
2023/06/09 03:47:34;;;;;;;4.53;3.50;;;;;14.40;96507.00;;;;4990296;28;20310;-73
2023/06/09 03:50:23;;;;;;;10.10;3.70;;;;;14.50;96514.00;;;;4990610;28;20206;-73
2023/06/09 03:53:12;;;;;;;5.60;4.07;;;;;14.60;96521.00;;;;4991183;28;20229;-74
2023/06/09 03:56:01;;;;;;;3.53;3.23;;;;;14.50;96521.00;;;;4990807;28;20699;-73
2023/06/09 03:58:53;;;;;;;3.97;3.67;;;;;14.40;96516.00;;;;4985521;28;20210;-73
2023/06/09 04:01:42;;;;;;;6.43;3.20;;;;;14.20;96518.00;;;;4990027;28;20857;-73
2023/06/09 04:04:32;;;;;;;4.77;4.23;;;;;14.40;96526.00;;;;4988415;28;20800;-73
2023/06/09 04:07:21;;;;;;;4.00;3.60;;;;;14.30;96524.00;;;;4987955;28;20226;-73
2023/06/09 04:10:10;;;;;;;4.23;3.83;;;;;14.30;96524.00;;;;4988673;28;20203;-73
2023/06/09 04:12:59;;;;;;;5.90;3.50;;;;;14.20;96524.00;;;;4989272;28;20223;-73
2023/06/09 04:15:50;;;;;;;5.13;3.97;;;;;14.30;96524.00;;;;4990086;28;20211;-73
2023/06/09 04:18:39;;;;;;;4.77;3.77;;;;;14.60;96534.00;;;;4989441;28;20211;-73
2023/06/09 04:21:28;;;;;;;4.63;4.23;;;;;14.80;96522.00;;;;4989936;28;20211;-73
2023/06/09 04:24:17;;;;;;;5.37;3.80;;;;;15.00;96529.00;;;;4993346;28;20229;-73
2023/06/09 04:27:07;;;;;;;5.43;3.97;;;;;14.80;96523.00;;;;4995039;28;20211;-73
2023/06/09 04:29:57;;;;;;;6.13;3.80;;;;;14.70;96520.00;;;;4991104;28;20207;-74
2023/06/09 04:32:50;;;;;;;4.57;3.73;;;;;14.80;96523.00;;;;4996313;28;20206;-73
2023/06/09 04:35:41;;;;;;;6.73;4.57;;;;;14.70;96529.00;;;;4990195;28;20203;-74
2023/06/09 04:38:33;;;;;;;4.50;3.67;;;;;14.80;96530.00;;;;4988837;28;20214;-73
2023/06/09 04:41:21;;;;;;;4.43;4.03;;;;;14.90;96532.00;;;;4990141;28;20249;-72
2023/06/09 04:44:11;;;;;;;4.80;3.97;;;;;14.80;96532.00;;;;4990465;28;20717;-73
2023/06/09 04:47:00;;;;;;;4.47;3.80;;;;;14.70;96535.00;;;;4991639;28;20217;-73
2023/06/09 04:49:50;;;;;;;6.47;3.77;;;;;14.60;96537.00;;;;4984513;28;20207;-71
2023/06/09 04:52:39;;;;;;;4.37;3.83;;;;;14.70;96535.00;;;;4991213;28;20206;-70
2023/06/09 04:55:29;;;;;;;4.53;4.13;;;;;14.60;96531.00;;;;4988859;28;20213;-74
2023/06/09 04:58:18;;;;;;;5.33;4.83;;;;;14.80;96539.00;;;;4991640;28;20683;-74
2023/06/09 05:01:08;;;;;;;5.23;4.73;;;;;15.00;96540.00;;;;4985267;28;20222;-72
2023/06/09 05:03:59;;;;;;;5.50;5.00;;;;;15.20;96541.00;;;;4988098;28;20218;-72
2023/06/09 05:06:50;;;;;;;6.83;4.50;;;;;15.00;96540.00;;;;5000248;28;20225;-70
2023/06/09 05:09:39;;;;;;;5.33;4.63;;;;;15.70;96550.00;;;;4997450;28;20208;-72
2023/06/09 05:12:28;;;;;;;4.57;4.13;;;;;16.10;96548.00;;;;4995887;28;20214;-73
2023/06/09 05:15:18;;;;;;;4.27;3.87;;;;;16.10;96550.00;;;;4993710;28;20201;-73
2023/06/09 05:18:08;;;;;;;5.10;4.57;;;;;16.00;96544.00;;;;4990797;28;20207;-72
2023/06/09 05:20:57;;;;;;;5.37;4.83;;;;;16.40;96548.00;;;;4986471;28;20202;-72
2023/06/09 05:23:47;;;;;;;5.37;4.80;;;;;16.60;96550.00;;;;4981924;28;20231;-73
2023/06/09 05:26:36;;;;;;;5.00;4.50;;;;;16.70;96556.00;;;;4993318;28;20286;-73
2023/06/09 05:29:26;;;;;;;4.63;4.23;;;;;16.50;96550.00;;;;4993798;28;20233;-73
2023/06/09 05:32:15;;;;;;;6.60;5.00;;;;;16.90;96537.00;;;;4989904;28;20575;-73
2023/06/09 05:35:04;;;;;;;5.77;4.13;;;;;16.90;96555.00;;;;4986941;28;20207;-72
2023/06/09 05:37:54;;;;;;;5.73;4.60;;;;;17.40;96541.00;;;;4993320;28;20202;-74
2023/06/09 05:40:45;;;;;;;4.43;3.97;;;;;17.70;96547.00;;;;4982794;28;20212;-74
2023/06/09 05:43:34;;;;;;;5.27;4.73;;;;;17.50;96548.00;;;;4992619;28;20703;-74
2023/06/09 05:46:23;;;;;;;6.30;5.67;;;;;17.40;96534.00;;;;4992696;28;20724;-73
2023/06/09 05:49:12;;;;;;;4.80;4.40;;;;;17.80;96540.00;;;;4992809;28;20210;-74
2023/06/09 05:52:01;;;;;;;5.03;4.03;;;;;17.80;96541.00;;;;4997986;28;20221;-74
2023/06/09 05:54:50;;;;;;;5.23;3.93;;;;;17.60;96546.00;;;;5001929;28;20244;-72
2023/06/09 05:57:41;;;;;;;6.17;5.40;;;;;17.70;96543.00;;;;4989017;28;20289;-74
2023/06/09 06:00:30;;;;;;;8.10;5.60;;;;;17.90;96552.00;;;;4995382;28;20246;-74
2023/06/09 06:03:20;;;;;;;7.30;4.87;;;;;18.20;96545.00;;;;4992845;28;20687;-74
2023/06/09 06:06:09;;;;;;;7.33;5.17;;;;;18.30;96547.00;;;;4987573;28;20237;-73
2023/06/09 06:08:59;;;;;;;6.27;5.10;;;;;18.60;96544.00;;;;4987614;28;20220;-73
2023/06/09 06:11:48;;;;;;;10.17;6.43;;;;;18.50;96542.00;;;;4989782;28;20238;-73
2023/06/09 06:14:38;;;;;;;8.57;5.40;;;;;18.90;96538.00;;;;4964897;28;20231;-73
2023/06/09 06:17:27;;;;;;;8.43;5.73;;;;;19.00;96536.00;;;;4989302;28;20199;-72
2023/06/09 06:20:17;;;;;;;9.03;6.17;;;;;19.00;96545.00;;;;4994691;28;20207;-72
2023/06/09 06:23:07;;;;;;;10.33;6.27;;;;;19.00;96543.00;;;;4996658;28;20249;-72
2023/06/09 06:25:56;;;;;;;8.90;6.03;;;;;19.00;96534.00;;;;5001302;28;20222;-71
2023/06/09 06:28:46;;;;;;;8.10;6.53;;;;;19.30;96550.00;;;;4996465;28;20212;-73
2023/06/09 06:31:36;;;;;;;9.80;6.27;;;;;19.70;96542.00;;;;4999742;28;20581;-73
2023/06/09 06:34:25;;;;;;;8.63;6.33;;;;;19.90;96539.00;;;;4995925;28;20226;-72
2023/06/09 06:37:14;;;;;;;7.10;6.43;;;;;19.90;96543.00;;;;4993889;28;20199;-74
2023/06/09 06:40:04;;;;;;;9.23;7.90;;;;;20.30;96540.00;;;;4994727;28;20198;-75
2023/06/09 06:42:54;;;;;;;8.53;6.77;;;;;20.60;96536.00;;;;4994297;28;20313;-74
2023/06/09 06:45:43;;;;;;;11.83;7.17;;;;;21.00;96543.00;;;;4983691;28;20222;-74
2023/06/09 06:48:34;;;;;;;8.20;6.53;;;;;21.40;96547.00;;;;4999054;28;20232;-74
2023/06/09 06:51:23;;;;;;;7.33;6.00;;;;;21.50;96554.00;;;;4987894;28;20576;-74
2023/06/09 06:54:12;;;;;;;8.13;6.50;;;;;21.60;96547.00;;;;4991945;28;20229;-73
2023/06/09 06:57:01;;;;;;;7.87;6.80;;;;;21.80;96550.00;;;;4991268;28;20726;-73
2023/06/09 06:59:51;;;;;;;8.93;6.80;;;;;22.10;96554.00;;;;4986829;28;20210;-74
2023/06/09 07:02:40;;;;;;;7.00;6.30;;;;;22.10;96553.00;;;;4990178;28;20707;-74
2023/06/09 07:05:31;;;;;;;9.57;6.73;;;;;22.30;96545.00;;;;4990616;28;20217;-74
2023/06/09 07:08:20;;;;;;;8.93;6.80;;;;;22.30;96541.00;;;;4998470;28;20202;-73
2023/06/09 07:11:09;;;;;;;9.80;6.70;;;;;22.40;96537.00;;;;4991318;28;20221;-73
2023/06/09 07:13:58;;;;;;;6.83;6.00;;;;;22.80;96534.00;;;;4986563;28;20230;-73
2023/06/09 07:16:47;;;;;;;7.63;5.83;;;;;23.00;96532.00;;;;4983900;28;20680;-72
2023/06/09 07:19:36;;;;;;;7.77;5.93;;;;;23.10;96535.00;;;;4985380;28;20195;-73
2023/06/09 07:22:28;;;;;;;7.13;5.90;;;;;23.40;96544.00;;;;4991134;28;20679;-73
2023/06/09 07:25:17;;;;;;;7.77;7.00;;;;;23.50;96538.00;;;;4991344;28;20691;-73
2023/06/09 07:28:06;;;;;;;5.83;5.20;;;;;23.90;96538.00;;;;4987532;28;20612;-74
2023/06/09 07:30:55;;;;;;;5.87;5.07;;;;;24.10;96539.00;;;;4984872;28;20199;-74
2023/06/09 07:33:44;;;;;;;5.50;4.83;;;;;24.20;96532.00;;;;4988532;28;20329;-71
2023/06/09 07:36:35;;;;;;;6.87;5.57;;;;;24.30;96536.00;;;;4990247;28;20389;-72
2023/06/09 07:39:25;;;;;;;6.20;5.50;;;;;24.50;96534.00;;;;4990598;28;20198;-72
2023/06/09 07:42:14;;;;;;;6.10;5.23;;;;;23.90;96524.00;;;;4998906;28;20210;-74
2023/06/09 07:45:04;;;;;;;5.23;4.47;;;;;24.40;96531.00;;;;4988769;28;20217;-74
2023/06/09 07:47:53;;;;;;;7.70;4.97;;;;;24.90;96530.00;;;;4986600;28;20320;-74
2023/06/09 07:50:42;;;;;;;6.33;4.77;;;;;24.80;96530.00;;;;4989330;28;20214;-74
2023/06/09 07:53:38;;;;;;;5.80;5.20;;;;;24.20;96522.00;;;;4989984;28;20238;-73
2023/06/09 07:56:29;;;;;;;6.77;5.73;;;;;24.20;96524.00;;;;4992521;28;20668;-72
2023/06/09 07:59:19;;;;;;;5.20;4.70;;;;;23.20;96520.00;;;;4988495;28;20221;-73
2023/06/09 08:02:08;;;;;;;6.20;4.50;;;;;23.90;96526.00;;;;4989413;28;20623;-74
2023/06/09 08:04:57;;;;;;;5.47;4.87;;;;;24.30;96537.00;;;;4989410;28;20226;-73
2023/06/09 08:07:46;;;;;;;5.37;4.87;;;;;24.60;96535.00;;;;4991142;28;20284;-73
2023/06/09 08:10:35;;;;;;;7.53;5.10;;;;;25.10;96518.00;;;;4988665;28;20978;-73
2023/06/09 08:13:26;;;;;;;5.23;4.73;;;;;25.70;96522.00;;;;4986727;28;20235;-73
2023/06/09 08:16:15;;;;;;;7.50;5.20;;;;;26.00;96524.00;;;;4986054;28;20207;-73
2023/06/09 08:19:04;;;;;;;7.43;5.00;;;;;25.50;96520.00;;;;4989125;28;20203;-73
2023/06/09 08:21:53;;;;;;;4.77;4.13;;;;;26.30;96518.00;;;;4986700;28;20555;-72
2023/06/09 08:24:42;;;;;;;4.33;3.80;;;;;26.10;96513.00;;;;4988320;28;20237;-72
2023/06/09 08:27:31;;;;;;;7.90;4.10;;;;;26.70;96537.00;;;;4982810;28;20461;-72
2023/06/09 08:30:22;;;;;;;4.37;3.97;;;;;26.20;96515.00;;;;4991673;28;20229;-73
2023/06/09 08:33:11;;;;;;;4.67;4.27;;;;;27.00;96520.00;;;;4989660;28;20218;-73
2023/06/09 08:36:02;;;;;;;5.10;4.60;;;;;26.60;96515.00;;;;4993350;28;20719;-74
2023/06/09 08:38:51;;;;;;;4.30;3.30;;;;;26.40;96520.00;;;;4985867;28;20211;-73
2023/06/09 08:41:41;;;;;;;3.87;3.57;;;;;26.30;96517.00;;;;4986125;28;20204;-73
2023/06/09 08:44:30;;;;;;;5.80;3.17;;;;;25.80;96517.00;;;;4981199;28;20222;-73
2023/06/09 08:47:21;;;;;;;3.60;3.30;;;;;25.70;96516.00;;;;4986101;28;20233;-73
2023/06/09 08:50:11;;;;;;;3.90;3.47;;;;;25.60;96515.00;;;;4984297;28;20214;-73
2023/06/09 08:53:00;;;;;;;6.63;4.10;;;;;25.50;96510.00;;;;4997184;28;20230;-72
2023/06/09 08:55:50;;;;;;;5.57;3.43;;;;;25.10;96510.00;;;;4996189;28;20198;-72
2023/06/09 08:58:41;;;;;;;4.03;3.33;;;;;25.00;96500.00;;;;4997397;28;20198;-75
2023/06/09 09:01:31;;;;;;;4.97;3.67;;;;;26.40;96491.00;;;;4991856;28;20199;-74
2023/06/09 09:04:22;;;;;;;4.67;3.47;;;;;27.20;96485.00;;;;4991851;28;20464;-74
2023/06/09 09:07:14;;;;;;;7.23;3.77;;;;;27.80;96489.00;;;;4992442;28;20231;-75
2023/06/09 09:10:03;;;;;;;4.00;3.60;;;;;28.20;96492.00;;;;4986956;28;20581;-75
2023/06/09 09:12:54;;;;;;;4.27;3.87;;;;;27.90;96490.00;;;;4994541;28;20206;-74
2023/06/09 09:15:50;;;;;;;4.47;4.07;;;;;28.60;96485.00;;;;4994622;28;20208;-74
2023/06/09 09:18:40;;;;;;;6.97;3.80;;;;;28.40;96483.00;;;;4989637;28;20566;-75
2023/06/09 09:21:30;;;;;;;3.77;3.40;;;;;28.50;96484.00;;;;4989420;28;20217;-75
2023/06/09 09:24:19;;;;;;;5.50;4.57;;;;;29.00;96484.00;;;;4981227;28;20231;-75
2023/06/09 09:27:17;;;;;;;3.47;3.17;;;;;29.10;96483.00;;;;4989484;28;20225;-75
2023/06/09 09:30:06;;;;;;;4.40;3.73;;;;;29.50;96472.00;;;;4989368;28;20213;-75
2023/06/09 09:32:56;;;;;;;5.03;3.57;;;;;29.10;96474.00;;;;4989731;28;20231;-74
2023/06/09 09:35:46;;;;;;;4.27;3.60;;;;;28.60;96492.00;;;;4989096;28;20216;-74
2023/06/09 09:38:37;;;;;;;4.70;4.00;;;;;29.30;96467.00;;;;4988630;28;20621;-73
2023/06/09 09:41:26;;;;;;;3.70;3.40;;;;;28.30;96460.00;;;;4987143;28;20211;-74
2023/06/09 09:44:18;;;;;;;3.97;3.60;;;;;26.40;96488.00;;;;4989393;28;20253;-75
2023/06/09 09:47:09;;;;;;;4.07;3.67;;;;;27.90;96448.00;;;;4984911;28;20235;-74
2023/06/09 09:49:59;;;;;;;4.40;3.90;;;;;27.80;96441.00;;;;4988763;28;20210;-75
2023/06/09 09:52:48;;;;;;;;;;;;;29.20;96450.00;;;;4986758;28;20046;-74
2023/06/09 09:55:39;;;;;;;;;;;;;29.90;96442.00;;;;4989730;28;19933;-75
2023/06/09 09:58:30;;;;;;;4.13;3.70;;;;;30.30;96441.00;;;;4990693;28;19990;-74
2023/06/09 10:01:22;;;;;;;3.13;2.83;;;;;30.60;96447.00;;;;4986953;28;20207;-73
2023/06/09 10:04:12;;;;;;;3.57;3.27;;;;;30.80;96443.00;;;;4988625;28;20228;-75
2023/06/09 10:07:02;;;;;;;4.90;3.43;;;;;29.80;96484.00;;;;4985295;28;20220;-74
2023/06/09 10:09:52;;;;;;;4.43;3.70;;;;;29.10;96435.00;;;;4989640;28;20198;-75
2023/06/09 10:12:43;;;;;;;4.47;4.07;;;;;28.80;96472.00;;;;4994030;28;20210;-75
2023/06/09 10:15:33;;;;;;;3.87;3.47;;;;;29.60;96436.00;;;;4989131;28;20228;-76
2023/06/09 10:18:22;;;;;;;3.57;3.27;;;;;29.60;96437.00;;;;4985511;28;20210;-75
2023/06/09 10:21:12;;;;;;;4.03;3.67;;;;;30.30;96433.00;;;;4991804;28;20219;-74
2023/06/09 10:24:02;;;;;;;5.13;4.57;;;;;29.80;96429.00;;;;4987883;28;20233;-75
2023/06/09 10:26:51;;;;;;;4.00;3.63;;;;;30.70;96422.00;;;;4992217;28;20220;-74
2023/06/09 10:29:42;;;;;;;6.97;4.13;;;;;31.30;96423.00;;;;4988488;28;20209;-74
2023/06/09 10:32:33;;;;;;;3.83;3.50;;;;;29.80;96466.00;;;;4988861;28;20740;-74
2023/06/09 10:35:26;;;;;;;4.00;3.67;;;;;27.90;96454.00;;;;4989060;28;20271;-76
2023/06/09 10:38:28;;;;;;;3.83;3.43;;;;;28.20;96454.00;;;;4993030;28;20130;-76
2023/06/09 10:41:22;;;;;;;4.80;4.33;;;;;27.50;96449.00;;;;4996154;28;20732;-75
2023/06/09 10:44:27;;;;;;;6.80;4.37;;;;;27.50;96459.00;;;;4992915;28;20961;-75
2023/06/09 10:47:42;;;;;;;3.93;3.63;;;;;27.40;96448.00;;;;4989649;28;20209;-74
2023/06/09 10:50:32;;;;;;;5.43;3.23;;;;;27.10;96445.00;;;;4991309;28;20842;-76
2023/06/09 10:53:22;;;;;;;4.07;3.67;;;;;28.00;96394.00;;;;4992632;28;20233;-75
2023/06/09 10:56:35;;;;;;;4.23;3.37;;;;;28.50;96385.00;;;;4993392;28;20202;-76
2023/06/09 11:00:00;;;;;;;3.90;3.50;;;;;27.80;96387.00;;;;4996479;28;20223;-74
2023/06/09 11:02:51;;;;;;;;;;;;;28.90;96426.00;;;;4993790;28;19921;-74
2023/06/09 11:05:42;;;;;;;3.87;2.93;;;;;30.10;96383.00;;;;4991855;28;19958;-75
2023/06/09 11:09:02;;;;;;;3.80;3.40;;;;;31.50;96379.00;;;;4991782;28;20236;-75
2023/06/09 11:11:53;;;;;;;3.63;3.07;;;;;31.20;96419.00;;;;4991605;28;20208;-74
2023/06/09 11:14:56;;;;;;;3.53;2.90;;;;;30.30;96438.00;;;;4991396;28;20645;-75
2023/06/09 11:17:46;;;;;;;4.47;3.47;;;;;27.10;96375.00;;;;4984573;28;20209;-76
2023/06/09 11:20:37;;;;;;;3.57;3.27;;;;;28.40;96363.00;;;;4992265;28;20290;-74
2023/06/09 11:23:27;;;;;;;4.77;3.50;;;;;27.80;96389.00;;;;4990774;28;20232;-73
2023/06/09 11:26:23;;;;;;;5.33;3.50;;;;;27.90;96384.00;;;;4991101;28;20620;-74
2023/06/09 11:29:21;;;;;;;3.80;3.00;;;;;27.40;96342.00;;;;4988028;28;20568;-73
2023/06/09 11:32:12;;;;;;;6.17;4.00;;;;;28.50;96358.00;;;;4987938;28;20225;-69
2023/06/09 11:35:03;;;;;;;6.60;4.30;;;;;30.10;96351.00;;;;4990162;28;20207;-69
2023/06/09 11:37:55;;;;;;;4.17;3.77;;;;;29.50;96341.00;;;;4991234;28;20713;-76
2023/06/09 11:40:51;;;;;;;6.13;3.83;;;;;30.60;96341.00;;;;4984313;28;20210;-70
2023/06/09 11:43:48;;;;;;;4.03;3.63;;;;;31.80;96370.00;;;;4990640;28;20224;-71
2023/06/09 11:46:37;;;;;;;3.80;3.40;;;;;31.20;96397.00;;;;4987811;28;20218;-70
2023/06/09 11:49:26;;;;;;;4.03;3.07;;;;;30.70;96389.00;;;;4990806;28;20637;-69
2023/06/09 11:52:15;;;;;;;3.77;3.37;;;;;29.50;96404.00;;;;4991043;28;20215;-74
2023/06/09 11:55:07;;;;;;;3.27;2.83;;;;;27.60;96397.00;;;;4987565;28;20212;-72
2023/06/09 11:57:56;;;;;;;2.73;2.53;;;;;28.20;96400.00;;;;4990843;28;20215;-74
2023/06/09 12:00:47;;;;;;;3.33;3.03;;;;;28.10;96392.00;;;;4990491;28;20218;-71
2023/06/09 12:03:38;;;;;;;3.70;3.10;;;;;27.60;96391.00;;;;4990802;28;20228;-72
2023/06/09 12:06:27;;;;;;;3.07;2.77;;;;;25.60;96370.00;;;;4991990;28;20213;-67
2023/06/09 12:09:19;;;;;;;;;;;;;26.00;96300.00;;;;4990629;28;20240;-71
2023/06/09 12:12:10;;;;;;;4.57;4.17;;;;;25.80;96312.00;;;;4990028;28;20010;-71
2023/06/09 12:14:59;;;;;;;3.33;3.03;;;;;26.80;96306.00;;;;4990275;28;20215;-71
2023/06/09 12:17:50;;;;;;;5.17;3.13;;;;;26.60;96289.00;;;;4981988;28;20211;-68
2023/06/09 12:20:41;;;;;;;3.63;3.33;;;;;27.00;96299.00;;;;4990881;28;20211;-74
2023/06/09 12:23:30;;;;;;;3.70;3.40;;;;;26.40;96307.00;;;;4990046;28;20239;-72
2023/06/09 12:26:21;;;;;;;2.87;2.60;;;;;26.80;96333.00;;;;4989967;28;20223;-70
2023/06/09 12:29:13;;;;;;;4.93;3.53;;;;;27.90;96338.00;;;;4990408;28;20234;-70
2023/06/09 12:32:02;;;;;;;4.40;3.77;;;;;26.00;96320.00;;;;4985318;28;20215;-73
2023/06/09 12:34:51;;;;;;;3.60;3.30;;;;;25.80;96354.00;;;;4995172;28;20219;-68
2023/06/09 12:37:40;;;;;;;3.20;3.00;;;;;25.10;96352.00;;;;4989881;28;20219;-67
2023/06/09 12:40:29;;;;;;;3.50;3.20;;;;;24.80;96356.00;;;;4991885;28;20199;-71
2023/06/09 12:43:19;;;;;;;4.27;3.27;;;;;24.90;96385.00;;;;4997122;28;20264;-67
2023/06/09 12:46:09;;;;;;;3.60;3.20;;;;;25.00;96404.00;;;;4990746;28;20684;-69
2023/06/09 12:49:01;;;;;;;3.30;3.00;;;;;24.80;96402.00;;;;4985040;28;20226;-72
2023/06/09 12:51:50;;;;;;;6.50;3.93;;;;;25.30;96427.00;;;;4986251;28;20202;-71
2023/06/09 12:54:39;;;;;;;4.30;3.87;;;;;25.10;96433.00;;;;4988394;28;20631;-68
2023/06/09 12:57:28;;;;;;;6.03;4.13;;;;;25.00;96440.00;;;;4982627;28;20211;-69
2023/06/09 13:00:18;;;;;;;4.00;3.63;;;;;24.00;96446.00;;;;4993485;28;20214;-68
2023/06/09 13:03:11;;;;;;;12.17;3.87;;;;;23.60;96460.00;;;;4996240;28;20226;-69
2023/06/09 13:06:00;;;;;;;6.43;4.40;;;;;24.20;96452.00;;;;4982055;28;20205;-69
2023/06/09 13:08:49;;;;;;;6.33;3.90;;;;;24.40;96439.00;;;;4989985;28;20199;-71
2023/06/09 13:11:40;;;;;;;5.00;4.37;;;;;24.70;96436.00;;;;4992377;28;20675;-71
2023/06/09 13:14:29;;;;;;;4.90;4.40;;;;;24.60;96447.00;;;;4989548;28;20225;-71
2023/06/09 13:17:19;;;;;;;4.30;3.90;;;;;24.60;96440.00;;;;4992760;28;20218;-70
2023/06/09 13:20:10;;;;;;;9.10;4.80;;;;;24.60;96413.00;;;;4994147;28;20221;-71
2023/06/09 13:23:00;;;;;;;4.40;3.70;;;;;26.40;96377.00;;;;4995576;28;20703;-71
2023/06/09 13:25:49;;;;;;;3.63;3.33;;;;;28.00;96372.00;;;;4992985;28;20203;-69
2023/06/09 13:28:38;;;;;;;6.67;3.77;;;;;29.10;96367.00;;;;4986825;28;20293;-70
2023/06/09 13:31:27;;;;;;;5.20;3.33;;;;;29.60;96382.00;;;;4988788;28;20208;-70
2023/06/09 13:34:16;;;;;;;3.67;2.60;;;;;29.10;96367.00;;;;4971129;28;20413;-70
2023/06/09 13:37:07;;;;;;;2.53;2.33;;;;;29.00;96369.00;;;;4987529;28;20216;-73
2023/06/09 13:39:56;;;;;;;3.87;2.67;;;;;30.10;96364.00;;;;4984601;28;20214;-72
2023/06/09 13:42:50;;;;;;;;;;;;;31.20;96362.00;;;;4990363;28;20209;-70
2023/06/09 13:45:39;;;;;;;;;;;;;31.40;96365.00;;;;4990155;28;19922;-71
2023/06/09 13:48:28;;;;;;;;;;;;;31.80;96361.00;;;;4990400;28;19972;-71
2023/06/09 13:51:17;;;;;;;;;;;;;31.70;96377.00;;;;4988555;28;20504;-72
2023/06/09 13:54:07;;;;;;;;;;;;;31.10;96387.00;;;;4987208;28;19922;-72
2023/06/09 13:56:57;;;;;;;3.85;2.90;;;;;30.50;96402.00;;;;4993708;28;19922;-72
2023/06/09 13:59:46;;;;;;;2.80;2.60;;;;;29.40;96419.00;;;;4988536;28;20212;-72
2023/06/09 14:02:35;;;;;;;2.83;2.40;;;;;28.30;96427.00;;;;4987984;28;20215;-72
2023/06/09 14:05:25;;;;;;;3.60;2.33;;;;;28.20;96420.00;;;;4988456;28;20292;-72
2023/06/09 14:08:14;;;;;;;3.00;2.70;;;;;27.70;96417.00;;;;4989024;28;20216;-72
2023/06/09 14:11:05;;;;;;;4.10;2.60;;;;;27.00;96422.00;;;;4987485;28;20245;-72
2023/06/09 14:13:54;;;;;;;5.90;2.53;;;;;26.40;96420.00;;;;4981383;28;20239;-72